sensor_id;sensor_type;location;lat;lon;timestamp;P1;durP1;ratioP1;P2;durP2;ratioP2
23310;SDS011;11828;51.508;18.118;2023-05-27T00:02:11;240.25;;;73.22;;
23310;SDS011;11828;51.508;18.118;2023-05-27T00:04:37;243.60;;;72.60;;
23310;SDS011;11828;51.508;18.118;2023-05-27T00:07:03;241.07;;;73.00;;
23310;SDS011;11828;51.508;18.118;2023-05-27T00:09:30;241.63;;;72.05;;
23310;SDS011;11828;51.508;18.118;2023-05-27T00:11:56;241.25;;;71.30;;
23310;SDS011;11828;51.508;18.118;2023-05-27T00:14:22;239.30;;;71.00;;
23310;SDS011;11828;51.508;18.118;2023-05-27T00:16:50;242.18;;;73.63;;
23310;SDS011;11828;51.508;18.118;2023-05-27T00:19:16;237.57;;;71.05;;
23310;SDS011;11828;51.508;18.118;2023-05-27T00:21:43;257.40;;;74.18;;
23310;SDS011;11828;51.508;18.118;2023-05-27T00:24:09;235.25;;;71.82;;
23310;SDS011;11828;51.508;18.118;2023-05-27T00:26:36;242.02;;;71.10;;
23310;SDS011;11828;51.508;18.118;2023-05-27T00:29:04;244.07;;;72.13;;
23310;SDS011;11828;51.508;18.118;2023-05-27T00:31:30;236.73;;;70.95;;
23310;SDS011;11828;51.508;18.118;2023-05-27T00:33:56;241.27;;;71.43;;
23310;SDS011;11828;51.508;18.118;2023-05-27T00:36:22;238.50;;;71.18;;
23310;SDS011;11828;51.508;18.118;2023-05-27T00:38:48;233.05;;;70.60;;
23310;SDS011;11828;51.508;18.118;2023-05-27T00:41:14;241.05;;;72.68;;
23310;SDS011;11828;51.508;18.118;2023-05-27T00:43:40;241.82;;;72.15;;
23310;SDS011;11828;51.508;18.118;2023-05-27T00:46:07;239.40;;;72.88;;
23310;SDS011;11828;51.508;18.118;2023-05-27T00:48:33;244.05;;;72.53;;
23310;SDS011;11828;51.508;18.118;2023-05-27T00:51:00;250.35;;;74.43;;
23310;SDS011;11828;51.508;18.118;2023-05-27T00:53:26;242.85;;;72.72;;
23310;SDS011;11828;51.508;18.118;2023-05-27T00:55:53;238.02;;;71.47;;
23310;SDS011;11828;51.508;18.118;2023-05-27T00:58:19;246.55;;;73.88;;
23310;SDS011;11828;51.508;18.118;2023-05-27T01:00:47;236.98;;;72.32;;
23310;SDS011;11828;51.508;18.118;2023-05-27T01:03:13;249.85;;;75.88;;
23310;SDS011;11828;51.508;18.118;2023-05-27T01:05:40;236.82;;;74.90;;
23310;SDS011;11828;51.508;18.118;2023-05-27T01:10:54;243.82;;;76.50;;
23310;SDS011;11828;51.508;18.118;2023-05-27T01:16:11;244.52;;;74.78;;
23310;SDS011;11828;51.508;18.118;2023-05-27T01:18:39;243.63;;;74.03;;
23310;SDS011;11828;51.508;18.118;2023-05-27T01:21:10;249.20;;;73.57;;
23310;SDS011;11828;51.508;18.118;2023-05-27T01:23:38;241.60;;;73.43;;
23310;SDS011;11828;51.508;18.118;2023-05-27T01:26:07;242.90;;;72.47;;
23310;SDS011;11828;51.508;18.118;2023-05-27T01:28:33;240.90;;;72.40;;
23310;SDS011;11828;51.508;18.118;2023-05-27T01:31:17;236.02;;;72.45;;
23310;SDS011;11828;51.508;18.118;2023-05-27T01:33:55;236.45;;;72.18;;
23310;SDS011;11828;51.508;18.118;2023-05-27T01:36:32;238.43;;;72.20;;
23310;SDS011;11828;51.508;18.118;2023-05-27T01:39:05;239.98;;;72.38;;
23310;SDS011;11828;51.508;18.118;2023-05-27T01:41:36;240.57;;;71.97;;
23310;SDS011;11828;51.508;18.118;2023-05-27T01:44:07;239.07;;;72.65;;
23310;SDS011;11828;51.508;18.118;2023-05-27T01:46:35;245.63;;;72.72;;
23310;SDS011;11828;51.508;18.118;2023-05-27T01:49:02;231.25;;;71.50;;
23310;SDS011;11828;51.508;18.118;2023-05-27T01:51:29;235.57;;;70.90;;
23310;SDS011;11828;51.508;18.118;2023-05-27T01:53:55;239.35;;;72.63;;
23310;SDS011;11828;51.508;18.118;2023-05-27T01:56:21;235.45;;;71.55;;
23310;SDS011;11828;51.508;18.118;2023-05-27T01:58:47;239.70;;;72.80;;
23310;SDS011;11828;51.508;18.118;2023-05-27T02:01:13;246.75;;;73.10;;
23310;SDS011;11828;51.508;18.118;2023-05-27T02:03:40;237.27;;;71.88;;
23310;SDS011;11828;51.508;18.118;2023-05-27T02:06:06;235.90;;;70.95;;
23310;SDS011;11828;51.508;18.118;2023-05-27T02:08:32;244.27;;;73.47;;
23310;SDS011;11828;51.508;18.118;2023-05-27T02:10:59;235.45;;;71.28;;
23310;SDS011;11828;51.508;18.118;2023-05-27T02:13:25;236.88;;;71.95;;
23310;SDS011;11828;51.508;18.118;2023-05-27T02:15:51;241.00;;;72.15;;
23310;SDS011;11828;51.508;18.118;2023-05-27T02:18:18;238.02;;;72.82;;
23310;SDS011;11828;51.508;18.118;2023-05-27T02:20:46;241.80;;;72.70;;
23310;SDS011;11828;51.508;18.118;2023-05-27T02:23:12;231.63;;;69.90;;
23310;SDS011;11828;51.508;18.118;2023-05-27T02:25:38;226.40;;;70.32;;
23310;SDS011;11828;51.508;18.118;2023-05-27T02:28:05;237.48;;;72.25;;
23310;SDS011;11828;51.508;18.118;2023-05-27T02:30:31;232.70;;;71.63;;
23310;SDS011;11828;51.508;18.118;2023-05-27T02:32:57;237.60;;;71.03;;
23310;SDS011;11828;51.508;18.118;2023-05-27T02:35:23;229.70;;;71.47;;
23310;SDS011;11828;51.508;18.118;2023-05-27T02:37:50;240.13;;;72.53;;
23310;SDS011;11828;51.508;18.118;2023-05-27T02:40:25;248.45;;;74.75;;
23310;SDS011;11828;51.508;18.118;2023-05-27T02:42:53;260.88;;;75.68;;
23310;SDS011;11828;51.508;18.118;2023-05-27T02:45:19;267.33;;;77.07;;
23310;SDS011;11828;51.508;18.118;2023-05-27T02:47:45;228.35;;;70.40;;
23310;SDS011;11828;51.508;18.118;2023-05-27T02:50:11;232.52;;;70.57;;
23310;SDS011;11828;51.508;18.118;2023-05-27T02:52:38;225.57;;;70.10;;
23310;SDS011;11828;51.508;18.118;2023-05-27T02:55:04;240.45;;;71.28;;
23310;SDS011;11828;51.508;18.118;2023-05-27T02:57:31;226.00;;;69.70;;
23310;SDS011;11828;51.508;18.118;2023-05-27T02:59:57;240.95;;;71.60;;
23310;SDS011;11828;51.508;18.118;2023-05-27T03:05:00;229.80;;;71.32;;
23310;SDS011;11828;51.508;18.118;2023-05-27T03:07:27;226.35;;;71.03;;
23310;SDS011;11828;51.508;18.118;2023-05-27T03:09:57;226.50;;;70.95;;
23310;SDS011;11828;51.508;18.118;2023-05-27T03:12:23;227.95;;;71.22;;
23310;SDS011;11828;51.508;18.118;2023-05-27T03:14:50;228.05;;;71.22;;
23310;SDS011;11828;51.508;18.118;2023-05-27T03:17:18;228.57;;;71.18;;
23310;SDS011;11828;51.508;18.118;2023-05-27T03:19:45;227.07;;;71.15;;
23310;SDS011;11828;51.508;18.118;2023-05-27T03:22:12;229.75;;;72.18;;
23310;SDS011;11828;51.508;18.118;2023-05-27T03:24:38;239.38;;;73.45;;
23310;SDS011;11828;51.508;18.118;2023-05-27T03:27:04;230.05;;;72.13;;
23310;SDS011;11828;51.508;18.118;2023-05-27T03:29:31;232.25;;;71.80;;
23310;SDS011;11828;51.508;18.118;2023-05-27T03:31:57;230.48;;;71.07;;
23310;SDS011;11828;51.508;18.118;2023-05-27T03:34:23;232.68;;;71.95;;
23310;SDS011;11828;51.508;18.118;2023-05-27T03:36:50;229.05;;;72.95;;
23310;SDS011;11828;51.508;18.118;2023-05-27T03:39:16;232.23;;;72.60;;
23310;SDS011;11828;51.508;18.118;2023-05-27T03:41:43;232.05;;;72.05;;
23310;SDS011;11828;51.508;18.118;2023-05-27T03:44:09;230.20;;;71.90;;
23310;SDS011;11828;51.508;18.118;2023-05-27T03:46:35;232.57;;;73.50;;
23310;SDS011;11828;51.508;18.118;2023-05-27T03:49:01;244.23;;;73.78;;
23310;SDS011;11828;51.508;18.118;2023-05-27T03:51:28;230.63;;;71.78;;
23310;SDS011;11828;51.508;18.118;2023-05-27T03:53:54;227.50;;;72.90;;
23310;SDS011;11828;51.508;18.118;2023-05-27T03:56:20;232.20;;;73.38;;
23310;SDS011;11828;51.508;18.118;2023-05-27T03:58:47;229.32;;;72.85;;
23310;SDS011;11828;51.508;18.118;2023-05-27T04:01:15;230.48;;;72.90;;
23310;SDS011;11828;51.508;18.118;2023-05-27T04:03:42;237.23;;;73.60;;
23310;SDS011;11828;51.508;18.118;2023-05-27T04:06:09;228.90;;;71.45;;
23310;SDS011;11828;51.508;18.118;2023-05-27T04:08:35;229.18;;;72.70;;
23310;SDS011;11828;51.508;18.118;2023-05-27T04:11:03;236.13;;;73.00;;
23310;SDS011;11828;51.508;18.118;2023-05-27T04:13:29;237.63;;;74.50;;
23310;SDS011;11828;51.508;18.118;2023-05-27T04:15:57;237.88;;;73.53;;
23310;SDS011;11828;51.508;18.118;2023-05-27T04:18:24;236.45;;;74.22;;
23310;SDS011;11828;51.508;18.118;2023-05-27T04:20:50;233.25;;;74.43;;
23310;SDS011;11828;51.508;18.118;2023-05-27T04:23:17;235.77;;;73.80;;
23310;SDS011;11828;51.508;18.118;2023-05-27T04:25:43;229.57;;;73.80;;
23310;SDS011;11828;51.508;18.118;2023-05-27T04:28:09;234.52;;;74.25;;
23310;SDS011;11828;51.508;18.118;2023-05-27T04:30:36;233.13;;;73.60;;
23310;SDS011;11828;51.508;18.118;2023-05-27T04:33:05;235.50;;;73.97;;
23310;SDS011;11828;51.508;18.118;2023-05-27T04:35:33;229.82;;;74.05;;
23310;SDS011;11828;51.508;18.118;2023-05-27T04:37:59;243.43;;;75.72;;
23310;SDS011;11828;51.508;18.118;2023-05-27T04:40:27;236.10;;;74.85;;
23310;SDS011;11828;51.508;18.118;2023-05-27T04:42:54;233.27;;;74.32;;
23310;SDS011;11828;51.508;18.118;2023-05-27T04:45:21;230.80;;;73.25;;
23310;SDS011;11828;51.508;18.118;2023-05-27T04:47:47;235.32;;;73.45;;
23310;SDS011;11828;51.508;18.118;2023-05-27T04:50:14;246.57;;;74.55;;
23310;SDS011;11828;51.508;18.118;2023-05-27T04:52:40;237.20;;;73.85;;
23310;SDS011;11828;51.508;18.118;2023-05-27T04:55:10;230.20;;;71.88;;
23310;SDS011;11828;51.508;18.118;2023-05-27T04:57:36;240.27;;;74.63;;
23310;SDS011;11828;51.508;18.118;2023-05-27T05:00:06;245.48;;;75.60;;
23310;SDS011;11828;51.508;18.118;2023-05-27T05:02:34;241.23;;;74.85;;
23310;SDS011;11828;51.508;18.118;2023-05-27T05:05:04;231.63;;;74.18;;
23310;SDS011;11828;51.508;18.118;2023-05-27T05:07:34;239.77;;;73.47;;
23310;SDS011;11828;51.508;18.118;2023-05-27T05:10:03;243.30;;;76.22;;
23310;SDS011;11828;51.508;18.118;2023-05-27T05:12:31;261.73;;;77.43;;
23310;SDS011;11828;51.508;18.118;2023-05-27T05:14:57;239.95;;;73.93;;
23310;SDS011;11828;51.508;18.118;2023-05-27T05:17:24;241.75;;;74.60;;
23310;SDS011;11828;51.508;18.118;2023-05-27T05:19:51;238.20;;;74.07;;
23310;SDS011;11828;51.508;18.118;2023-05-27T05:22:18;242.38;;;74.80;;
23310;SDS011;11828;51.508;18.118;2023-05-27T05:24:45;239.35;;;74.78;;
23310;SDS011;11828;51.508;18.118;2023-05-27T05:27:11;238.02;;;75.88;;
23310;SDS011;11828;51.508;18.118;2023-05-27T05:29:38;234.88;;;72.95;;
23310;SDS011;11828;51.508;18.118;2023-05-27T05:32:04;238.57;;;74.07;;
23310;SDS011;11828;51.508;18.118;2023-05-27T05:34:31;236.85;;;73.50;;
23310;SDS011;11828;51.508;18.118;2023-05-27T05:36:57;237.10;;;73.20;;
23310;SDS011;11828;51.508;18.118;2023-05-27T05:39:24;237.90;;;73.65;;
23310;SDS011;11828;51.508;18.118;2023-05-27T05:41:50;234.10;;;73.70;;
23310;SDS011;11828;51.508;18.118;2023-05-27T05:44:17;239.60;;;73.15;;
23310;SDS011;11828;51.508;18.118;2023-05-27T05:46:43;238.10;;;74.25;;
23310;SDS011;11828;51.508;18.118;2023-05-27T05:49:09;234.90;;;73.10;;
23310;SDS011;11828;51.508;18.118;2023-05-27T05:51:35;229.15;;;71.55;;
23310;SDS011;11828;51.508;18.118;2023-05-27T05:54:02;240.98;;;74.05;;
23310;SDS011;11828;51.508;18.118;2023-05-27T05:56:28;243.60;;;75.72;;
23310;SDS011;11828;51.508;18.118;2023-05-27T05:58:54;240.70;;;75.25;;
23310;SDS011;11828;51.508;18.118;2023-05-27T06:01:21;244.18;;;75.70;;
23310;SDS011;11828;51.508;18.118;2023-05-27T06:03:48;240.02;;;74.15;;
23310;SDS011;11828;51.508;18.118;2023-05-27T06:06:14;237.18;;;74.25;;
23310;SDS011;11828;51.508;18.118;2023-05-27T06:08:41;233.98;;;72.78;;
23310;SDS011;11828;51.508;18.118;2023-05-27T06:11:07;234.02;;;72.97;;
23310;SDS011;11828;51.508;18.118;2023-05-27T06:13:34;237.48;;;73.93;;
23310;SDS011;11828;51.508;18.118;2023-05-27T06:16:00;237.40;;;73.35;;
23310;SDS011;11828;51.508;18.118;2023-05-27T06:18:26;238.60;;;73.60;;
23310;SDS011;11828;51.508;18.118;2023-05-27T06:20:52;260.80;;;74.55;;
23310;SDS011;11828;51.508;18.118;2023-05-27T06:23:19;261.13;;;76.93;;
23310;SDS011;11828;51.508;18.118;2023-05-27T06:25:45;252.52;;;76.38;;
23310;SDS011;11828;51.508;18.118;2023-05-27T06:28:11;237.23;;;74.18;;
23310;SDS011;11828;51.508;18.118;2023-05-27T06:30:38;249.45;;;74.65;;
23310;SDS011;11828;51.508;18.118;2023-05-27T06:33:05;258.02;;;75.72;;
23310;SDS011;11828;51.508;18.118;2023-05-27T06:35:31;233.73;;;73.97;;
23310;SDS011;11828;51.508;18.118;2023-05-27T06:37:58;240.35;;;74.05;;
23310;SDS011;11828;51.508;18.118;2023-05-27T06:40:24;240.50;;;74.28;;
23310;SDS011;11828;51.508;18.118;2023-05-27T06:42:50;243.73;;;73.50;;
23310;SDS011;11828;51.508;18.118;2023-05-27T06:45:18;247.85;;;75.95;;
23310;SDS011;11828;51.508;18.118;2023-05-27T06:47:44;242.73;;;73.32;;
23310;SDS011;11828;51.508;18.118;2023-05-27T06:50:10;238.90;;;74.60;;
23310;SDS011;11828;51.508;18.118;2023-05-27T06:52:36;241.05;;;74.07;;
23310;SDS011;11828;51.508;18.118;2023-05-27T06:55:03;243.35;;;74.45;;
23310;SDS011;11828;51.508;18.118;2023-05-27T06:57:29;241.02;;;75.80;;
23310;SDS011;11828;51.508;18.118;2023-05-27T06:59:55;247.68;;;75.47;;
23310;SDS011;11828;51.508;18.118;2023-05-27T07:02:22;250.73;;;74.57;;
23310;SDS011;11828;51.508;18.118;2023-05-27T07:04:48;248.68;;;76.00;;
23310;SDS011;11828;51.508;18.118;2023-05-27T07:07:15;258.48;;;79.03;;
23310;SDS011;11828;51.508;18.118;2023-05-27T07:09:41;254.98;;;79.18;;
23310;SDS011;11828;51.508;18.118;2023-05-27T07:12:07;270.08;;;84.90;;
23310;SDS011;11828;51.508;18.118;2023-05-27T07:14:33;263.85;;;82.10;;
23310;SDS011;11828;51.508;18.118;2023-05-27T07:16:59;266.30;;;87.38;;
23310;SDS011;11828;51.508;18.118;2023-05-27T07:19:25;264.10;;;88.00;;
23310;SDS011;11828;51.508;18.118;2023-05-27T07:21:52;273.90;;;91.82;;
23310;SDS011;11828;51.508;18.118;2023-05-27T07:24:18;264.35;;;88.25;;
23310;SDS011;11828;51.508;18.118;2023-05-27T07:26:44;258.75;;;89.72;;
23310;SDS011;11828;51.508;18.118;2023-05-27T07:29:10;258.23;;;90.57;;
23310;SDS011;11828;51.508;18.118;2023-05-27T07:31:37;260.70;;;89.78;;
23310;SDS011;11828;51.508;18.118;2023-05-27T07:34:03;259.85;;;94.25;;
23310;SDS011;11828;51.508;18.118;2023-05-27T07:36:29;258.98;;;93.03;;
23310;SDS011;11828;51.508;18.118;2023-05-27T07:38:56;266.92;;;96.50;;
23310;SDS011;11828;51.508;18.118;2023-05-27T07:41:22;259.35;;;93.30;;
23310;SDS011;11828;51.508;18.118;2023-05-27T07:43:49;259.10;;;93.78;;
23310;SDS011;11828;51.508;18.118;2023-05-27T07:46:16;268.15;;;100.03;;
23310;SDS011;11828;51.508;18.118;2023-05-27T07:48:42;264.40;;;99.05;;
23310;SDS011;11828;51.508;18.118;2023-05-27T07:51:08;284.23;;;104.07;;
23310;SDS011;11828;51.508;18.118;2023-05-27T07:53:35;270.75;;;100.85;;
23310;SDS011;11828;51.508;18.118;2023-05-27T07:56:01;281.92;;;105.75;;
23310;SDS011;11828;51.508;18.118;2023-05-27T07:58:28;270.75;;;104.75;;
23310;SDS011;11828;51.508;18.118;2023-05-27T08:00:54;278.02;;;104.18;;
23310;SDS011;11828;51.508;18.118;2023-05-27T08:03:20;275.10;;;106.30;;
23310;SDS011;11828;51.508;18.118;2023-05-27T08:05:47;285.55;;;108.65;;
23310;SDS011;11828;51.508;18.118;2023-05-27T08:08:13;286.42;;;108.75;;
23310;SDS011;11828;51.508;18.118;2023-05-27T08:10:39;289.85;;;109.45;;
23310;SDS011;11828;51.508;18.118;2023-05-27T08:13:05;275.23;;;107.57;;
23310;SDS011;11828;51.508;18.118;2023-05-27T08:15:31;272.70;;;107.97;;
23310;SDS011;11828;51.508;18.118;2023-05-27T08:17:58;274.58;;;109.50;;
23310;SDS011;11828;51.508;18.118;2023-05-27T08:20:25;281.73;;;110.80;;
23310;SDS011;11828;51.508;18.118;2023-05-27T08:22:51;269.75;;;109.13;;
23310;SDS011;11828;51.508;18.118;2023-05-27T08:25:17;275.85;;;110.20;;
23310;SDS011;11828;51.508;18.118;2023-05-27T08:27:50;284.55;;;112.70;;
23310;SDS011;11828;51.508;18.118;2023-05-27T08:30:18;271.65;;;108.80;;
23310;SDS011;11828;51.508;18.118;2023-05-27T08:32:45;276.05;;;111.22;;
23310;SDS011;11828;51.508;18.118;2023-05-27T08:35:12;276.90;;;112.50;;
23310;SDS011;11828;51.508;18.118;2023-05-27T08:37:38;290.92;;;112.97;;
23310;SDS011;11828;51.508;18.118;2023-05-27T08:40:06;275.90;;;112.63;;
23310;SDS011;11828;51.508;18.118;2023-05-27T08:42:38;273.50;;;114.50;;
23310;SDS011;11828;51.508;18.118;2023-05-27T08:45:06;270.15;;;116.90;;
23310;SDS011;11828;51.508;18.118;2023-05-27T08:47:33;246.80;;;115.57;;
23310;SDS011;11828;51.508;18.118;2023-05-27T08:50:00;260.67;;;117.22;;
23310;SDS011;11828;51.508;18.118;2023-05-27T08:52:27;272.00;;;121.78;;
23310;SDS011;11828;51.508;18.118;2023-05-27T08:54:54;189.13;;;115.30;;
23310;SDS011;11828;51.508;18.118;2023-05-27T08:57:25;178.98;;;115.65;;
23310;SDS011;11828;51.508;18.118;2023-05-27T08:59:55;132.02;;;106.43;;
23310;SDS011;11828;51.508;18.118;2023-05-27T09:02:21;193.02;;;115.75;;
23310;SDS011;11828;51.508;18.118;2023-05-27T09:04:48;148.52;;;110.80;;
23310;SDS011;11828;51.508;18.118;2023-05-27T09:07:15;116.55;;;103.30;;
23310;SDS011;11828;51.508;18.118;2023-05-27T09:09:41;125.47;;;107.85;;
23310;SDS011;11828;51.508;18.118;2023-05-27T09:12:07;144.85;;;110.90;;
23310;SDS011;11828;51.508;18.118;2023-05-27T09:14:34;127.40;;;105.32;;
23310;SDS011;11828;51.508;18.118;2023-05-27T09:17:07;104.55;;;94.20;;
23310;SDS011;11828;51.508;18.118;2023-05-27T09:19:34;69.53;;;64.03;;
23310;SDS011;11828;51.508;18.118;2023-05-27T09:22:00;41.90;;;38.88;;
23310;SDS011;11828;51.508;18.118;2023-05-27T09:24:27;18.98;;;16.63;;
23310;SDS011;11828;51.508;18.118;2023-05-27T09:26:54;19.92;;;16.70;;
23310;SDS011;11828;51.508;18.118;2023-05-27T09:29:24;21.90;;;19.73;;
23310;SDS011;11828;51.508;18.118;2023-05-27T09:31:53;22.80;;;20.50;;
23310;SDS011;11828;51.508;18.118;2023-05-27T09:34:21;16.67;;;9.80;;
23310;SDS011;11828;51.508;18.118;2023-05-27T09:36:48;16.25;;;12.43;;
23310;SDS011;11828;51.508;18.118;2023-05-27T09:39:17;31.20;;;19.33;;
23310;SDS011;11828;51.508;18.118;2023-05-27T09:41:54;27.30;;;25.02;;
23310;SDS011;11828;51.508;18.118;2023-05-27T09:44:27;27.85;;;25.30;;
23310;SDS011;11828;51.508;18.118;2023-05-27T09:46:57;15.60;;;12.48;;
23310;SDS011;11828;51.508;18.118;2023-05-27T09:49:26;24.17;;;7.13;;
23310;SDS011;11828;51.508;18.118;2023-05-27T09:51:53;15.38;;;2.50;;
23310;SDS011;11828;51.508;18.118;2023-05-27T09:54:22;18.65;;;2.88;;
23310;SDS011;11828;51.508;18.118;2023-05-27T09:56:49;12.23;;;2.05;;
23310;SDS011;11828;51.508;18.118;2023-05-27T09:59:16;29.00;;;3.33;;
23310;SDS011;11828;51.508;18.118;2023-05-27T10:01:44;18.25;;;2.67;;
23310;SDS011;11828;51.508;18.118;2023-05-27T10:04:14;17.33;;;2.55;;
23310;SDS011;11828;51.508;18.118;2023-05-27T10:06:46;16.92;;;2.45;;
23310;SDS011;11828;51.508;18.118;2023-05-27T10:09:14;23.15;;;3.17;;
23310;SDS011;11828;51.508;18.118;2023-05-27T10:11:42;18.35;;;3.25;;
23310;SDS011;11828;51.508;18.118;2023-05-27T10:14:09;16.90;;;2.80;;
23310;SDS011;11828;51.508;18.118;2023-05-27T10:16:37;16.35;;;14.43;;
23310;SDS011;11828;51.508;18.118;2023-05-27T10:19:08;27.77;;;24.33;;
23310;SDS011;11828;51.508;18.118;2023-05-27T10:21:41;20.40;;;12.30;;
23310;SDS011;11828;51.508;18.118;2023-05-27T10:24:10;10.02;;;3.35;;
23310;SDS011;11828;51.508;18.118;2023-05-27T10:26:43;27.67;;;20.08;;
23310;SDS011;11828;51.508;18.118;2023-05-27T10:29:14;30.40;;;27.50;;
23310;SDS011;11828;51.508;18.118;2023-05-27T10:31:46;29.17;;;26.23;;
23310;SDS011;11828;51.508;18.118;2023-05-27T10:34:17;129.05;;;84.82;;
23310;SDS011;11828;51.508;18.118;2023-05-27T10:36:44;108.85;;;89.70;;
23310;SDS011;11828;51.508;18.118;2023-05-27T10:41:51;156.27;;;108.07;;
23310;SDS011;11828;51.508;18.118;2023-05-27T10:44:37;119.93;;;98.88;;
23310;SDS011;11828;51.508;18.118;2023-05-27T10:47:09;198.10;;;112.28;;
23310;SDS011;11828;51.508;18.118;2023-05-27T10:49:39;251.02;;;118.20;;
23310;SDS011;11828;51.508;18.118;2023-05-27T10:52:13;199.63;;;113.32;;
23310;SDS011;11828;51.508;18.118;2023-05-27T10:54:42;238.52;;;113.75;;
23310;SDS011;11828;51.508;18.118;2023-05-27T10:57:18;266.70;;;115.80;;
23310;SDS011;11828;51.508;18.118;2023-05-27T10:59:52;262.02;;;114.65;;
23310;SDS011;11828;51.508;18.118;2023-05-27T11:02:21;294.40;;;116.38;;
23310;SDS011;11828;51.508;18.118;2023-05-27T11:04:48;291.02;;;116.28;;
23310;SDS011;11828;51.508;18.118;2023-05-27T11:07:17;280.05;;;116.00;;
23310;SDS011;11828;51.508;18.118;2023-05-27T11:09:46;301.58;;;120.05;;
23310;SDS011;11828;51.508;18.118;2023-05-27T11:14:43;272.98;;;111.85;;
23310;SDS011;11828;51.508;18.118;2023-05-27T11:17:19;270.48;;;111.75;;
23310;SDS011;11828;51.508;18.118;2023-05-27T11:19:47;269.58;;;110.50;;
23310;SDS011;11828;51.508;18.118;2023-05-27T11:22:14;270.42;;;112.03;;
23310;SDS011;11828;51.508;18.118;2023-05-27T11:24:42;271.92;;;110.10;;
23310;SDS011;11828;51.508;18.118;2023-05-27T11:27:19;269.45;;;110.70;;
23310;SDS011;11828;51.508;18.118;2023-05-27T11:29:51;266.73;;;110.10;;
23310;SDS011;11828;51.508;18.118;2023-05-27T11:32:18;266.05;;;109.70;;
23310;SDS011;11828;51.508;18.118;2023-05-27T11:34:45;273.95;;;111.57;;
23310;SDS011;11828;51.508;18.118;2023-05-27T11:37:12;263.08;;;109.07;;
23310;SDS011;11828;51.508;18.118;2023-05-27T11:39:49;265.02;;;109.30;;
23310;SDS011;11828;51.508;18.118;2023-05-27T11:42:22;268.80;;;109.93;;
23310;SDS011;11828;51.508;18.118;2023-05-27T11:44:50;265.40;;;108.80;;
23310;SDS011;11828;51.508;18.118;2023-05-27T11:47:17;271.15;;;109.88;;
23310;SDS011;11828;51.508;18.118;2023-05-27T11:49:44;268.33;;;110.53;;
23310;SDS011;11828;51.508;18.118;2023-05-27T11:52:14;262.60;;;108.35;;
23310;SDS011;11828;51.508;18.118;2023-05-27T11:54:41;273.13;;;110.18;;
23310;SDS011;11828;51.508;18.118;2023-05-27T11:57:07;268.05;;;108.80;;
23310;SDS011;11828;51.508;18.118;2023-05-27T11:59:36;265.60;;;109.22;;
23310;SDS011;11828;51.508;18.118;2023-05-27T12:02:03;270.95;;;109.97;;
23310;SDS011;11828;51.508;18.118;2023-05-27T12:04:30;269.35;;;110.35;;
23310;SDS011;11828;51.508;18.118;2023-05-27T12:06:57;267.85;;;110.05;;
23310;SDS011;11828;51.508;18.118;2023-05-27T12:09:26;263.27;;;109.97;;
23310;SDS011;11828;51.508;18.118;2023-05-27T12:11:52;258.88;;;107.75;;
23310;SDS011;11828;51.508;18.118;2023-05-27T12:14:20;267.92;;;108.72;;
23310;SDS011;11828;51.508;18.118;2023-05-27T12:16:47;272.85;;;109.68;;
23310;SDS011;11828;51.508;18.118;2023-05-27T12:19:14;267.02;;;109.70;;
23310;SDS011;11828;51.508;18.118;2023-05-27T12:21:40;278.55;;;110.90;;
23310;SDS011;11828;51.508;18.118;2023-05-27T12:24:06;266.88;;;109.95;;
23310;SDS011;11828;51.508;18.118;2023-05-27T12:26:33;269.35;;;109.57;;
23310;SDS011;11828;51.508;18.118;2023-05-27T12:28:59;272.27;;;110.72;;
23310;SDS011;11828;51.508;18.118;2023-05-27T12:31:25;271.85;;;109.68;;
23310;SDS011;11828;51.508;18.118;2023-05-27T12:33:51;265.73;;;108.63;;
23310;SDS011;11828;51.508;18.118;2023-05-27T12:36:17;280.10;;;109.88;;
23310;SDS011;11828;51.508;18.118;2023-05-27T12:38:45;264.05;;;109.13;;
23310;SDS011;11828;51.508;18.118;2023-05-27T12:41:10;265.48;;;109.18;;
23310;SDS011;11828;51.508;18.118;2023-05-27T12:43:37;272.30;;;108.55;;
23310;SDS011;11828;51.508;18.118;2023-05-27T12:46:06;269.27;;;109.40;;
23310;SDS011;11828;51.508;18.118;2023-05-27T12:48:32;277.65;;;111.82;;
23310;SDS011;11828;51.508;18.118;2023-05-27T12:50:58;268.58;;;111.00;;
23310;SDS011;11828;51.508;18.118;2023-05-27T12:53:25;267.27;;;111.97;;
23310;SDS011;11828;51.508;18.118;2023-05-27T12:55:51;273.52;;;117.13;;
23310;SDS011;11828;51.508;18.118;2023-05-27T12:58:18;238.10;;;113.43;;
23310;SDS011;11828;51.508;18.118;2023-05-27T13:00:44;197.82;;;112.07;;
23310;SDS011;11828;51.508;18.118;2023-05-27T13:03:10;195.82;;;113.10;;
23310;SDS011;11828;51.508;18.118;2023-05-27T13:05:37;122.55;;;100.82;;
23310;SDS011;11828;51.508;18.118;2023-05-27T13:08:03;167.52;;;111.90;;
23310;SDS011;11828;51.508;18.118;2023-05-27T13:10:30;117.90;;;98.60;;
23310;SDS011;11828;51.508;18.118;2023-05-27T13:12:57;139.95;;;109.80;;
23310;SDS011;11828;51.508;18.118;2023-05-27T13:15:25;139.65;;;104.95;;
23310;SDS011;11828;51.508;18.118;2023-05-27T13:17:53;73.50;;;67.35;;
23310;SDS011;11828;51.508;18.118;2023-05-27T13:20:20;88.75;;;80.60;;
23310;SDS011;11828;51.508;18.118;2023-05-27T13:22:48;81.05;;;74.20;;
23310;SDS011;11828;51.508;18.118;2023-05-27T13:25:14;77.80;;;71.43;;
23310;SDS011;11828;51.508;18.118;2023-05-27T13:27:41;49.70;;;45.65;;
23310;SDS011;11828;51.508;18.118;2023-05-27T13:30:10;30.33;;;27.80;;
23310;SDS011;11828;51.508;18.118;2023-05-27T13:32:41;12.50;;;10.98;;
23310;SDS011;11828;51.508;18.118;2023-05-27T13:35:08;18.25;;;14.32;;
23310;SDS011;11828;51.508;18.118;2023-05-27T13:37:40;19.38;;;13.23;;
23310;SDS011;11828;51.508;18.118;2023-05-27T13:40:07;18.73;;;10.98;;
23310;SDS011;11828;51.508;18.118;2023-05-27T13:42:35;16.23;;;11.05;;
23310;SDS011;11828;51.508;18.118;2023-05-27T13:45:02;18.33;;;16.42;;
23310;SDS011;11828;51.508;18.118;2023-05-27T13:47:29;16.25;;;9.90;;
23310;SDS011;11828;51.508;18.118;2023-05-27T13:49:55;15.57;;;12.90;;
23310;SDS011;11828;51.508;18.118;2023-05-27T13:52:21;27.83;;;12.18;;
23310;SDS011;11828;51.508;18.118;2023-05-27T13:54:47;20.73;;;18.73;;
23310;SDS011;11828;51.508;18.118;2023-05-27T13:57:13;32.20;;;22.23;;
23310;SDS011;11828;51.508;18.118;2023-05-27T13:59:39;32.45;;;29.65;;
23310;SDS011;11828;51.508;18.118;2023-05-27T14:02:06;29.02;;;23.27;;
23310;SDS011;11828;51.508;18.118;2023-05-27T14:04:34;25.75;;;15.52;;
23310;SDS011;11828;51.508;18.118;2023-05-27T14:07:01;29.23;;;15.38;;
23310;SDS011;11828;51.508;18.118;2023-05-27T14:09:27;30.38;;;27.50;;
23310;SDS011;11828;51.508;18.118;2023-05-27T14:11:53;28.60;;;25.75;;